Time;durP1;ratioP1;P1;durP2;ratioP2;P2;SDS_P1;SDS_P2;PMS_P1;PMS_P2;Temp;Humidity;BMP_temperature;BMP_pressure;BME280_temperature;BME280_humidity;BME280_pressure;Samples;Min_cycle;Max_cycle;Signal;HPM_P1;HPM_P2
2023/07/23 00:02:15;;;;;;;6.00;4.27;;;;;;;;;;5037615;28;87587;-57
2023/07/23 00:04:44;;;;;;;5.97;4.03;;;;;;;;;;5039145;27;87572;-57
2023/07/23 00:07:14;;;;;;;6.60;4.43;;;;;;;;;;5038902;27;89656;-57
2023/07/23 00:09:42;;;;;;;7.30;4.50;;;;;;;;;;5038612;28;89356;-57
2023/07/23 00:12:11;;;;;;;9.30;4.77;;;;;;;;;;5038867;27;87748;-57
2023/07/23 00:14:39;;;;;;;6.83;5.03;;;;;;;;;;5038803;27;87641;-58
2023/07/23 00:17:08;;;;;;;8.53;4.70;;;;;;;;;;5038807;27;92230;-57
2023/07/23 00:19:37;;;;;;;7.50;5.13;;;;;;;;;;5037774;27;90067;-57
2023/07/23 00:22:05;;;;;;;8.07;5.73;;;;;;;;;;5038428;28;89642;-57
2023/07/23 00:24:35;;;;;;;9.90;5.27;;;;;;;;;;5038679;27;87667;-57
2023/07/23 00:27:04;;;;;;;9.77;5.43;;;;;;;;;;5038491;27;88789;-57
2023/07/23 00:29:33;;;;;;;10.17;5.87;;;;;;;;;;5038856;27;88100;-57
2023/07/23 00:32:01;;;;;;;9.83;5.03;;;;;;;;;;5038158;27;87769;-57
2023/07/23 00:34:30;;;;;;;9.53;5.50;;;;;;;;;;5038706;27;87691;-57
2023/07/23 00:36:58;;;;;;;11.93;6.33;;;;;;;;;;5038417;27;90539;-57
2023/07/23 00:39:28;;;;;;;10.93;6.33;;;;;;;;;;5038340;27;88306;-58
2023/07/23 00:41:58;;;;;;;10.83;7.10;;;;;;;;;;5037809;27;88321;-57
2023/07/23 00:44:27;;;;;;;11.60;6.80;;;;;;;;;;5037871;27;87860;-57
2023/07/23 00:46:55;;;;;;;8.67;6.30;;;;;;;;;;5038269;27;88603;-57
2023/07/23 00:49:23;;;;;;;9.20;6.00;;;;;;;;;;5038452;27;88059;-57
2023/07/23 00:51:52;;;;;;;17.47;7.53;;;;;;;;;;5037893;27;88940;-57
2023/07/23 00:54:20;;;;;;;11.07;7.63;;;;;;;;;;5038230;27;87688;-57
2023/07/23 00:56:49;;;;;;;9.07;6.77;;;;;;;;;;5037864;27;89597;-57
2023/07/23 00:59:18;;;;;;;13.87;7.70;;;;;;;;;;5038072;27;87851;-57
2023/07/23 01:01:48;;;;;;;12.47;7.47;;;;;;;;;;5038089;27;88996;-57
2023/07/23 01:04:17;;;;;;;12.47;6.73;;;;;;;;;;5038211;27;87726;-57
2023/07/23 01:06:45;;;;;;;10.93;7.60;;;;;;;;;;5037380;27;88853;-57
2023/07/23 01:09:14;;;;;;;11.87;7.30;;;;;;;;;;5036496;27;89002;-57
2023/07/23 01:11:42;;;;;;;11.73;7.97;;;;;;;;;;5037838;27;87639;-57
2023/07/23 01:14:11;;;;;;;12.40;7.87;;;;;;;;;;5038227;27;88252;-57
2023/07/23 01:16:41;;;;;;;11.83;7.90;;;;;;;;;;5037749;27;89169;-57
2023/07/23 01:19:09;;;;;;;13.47;7.07;;;;;;;;;;5037555;27;89092;-57
2023/07/23 01:21:38;;;;;;;13.67;8.70;;;;;;;;;;5037765;27;88835;-57
2023/07/23 01:24:08;;;;;;;13.07;8.80;;;;;;;;;;5038061;27;87658;-57
2023/07/23 01:26:37;;;;;;;13.70;8.33;;;;;;;;;;5037690;27;89838;-57
2023/07/23 01:29:05;;;;;;;13.23;7.80;;;;;;;;;;5037567;27;88731;-57
2023/07/23 01:31:33;;;;;;;17.00;8.60;;;;;;;;;;5037489;27;88830;-57
2023/07/23 01:34:03;;;;;;;11.57;7.80;;;;;;;;;;5037058;27;87975;-57
2023/07/23 01:36:31;;;;;;;17.60;9.60;;;;;;;;;;5037577;27;89558;-57
2023/07/23 01:39:00;;;;;;;13.17;9.00;;;;;;;;;;5037455;27;89106;-57
2023/07/23 01:41:29;;;;;;;16.70;10.03;;;;;;;;;;5037621;27;88898;-58
2023/07/23 01:43:59;;;;;;;12.67;7.90;;;;;;;;;;5036641;27;87570;-57
2023/07/23 01:46:28;;;;;;;14.57;9.23;;;;;;;;;;5037151;27;88510;-57
2023/07/23 01:48:56;;;;;;;12.70;8.83;;;;;;;;;;5037215;27;88685;-57
2023/07/23 01:51:25;;;;;;;18.27;9.20;;;;;;;;;;5037701;27;87783;-57
2023/07/23 01:53:53;;;;;;;16.80;8.90;;;;;;;;;;5037660;27;87301;-57
2023/07/23 01:56:22;;;;;;;15.07;10.03;;;;;;;;;;5037301;27;89943;-57
2023/07/23 01:58:51;;;;;;;11.67;8.60;;;;;;;;;;5035905;27;88963;-57
2023/07/23 02:01:21;;;;;;;17.83;11.37;;;;;;;;;;5037301;28;88666;-57
2023/07/23 02:03:49;;;;;;;17.00;10.43;;;;;;;;;;5036494;27;88085;-57
2023/07/23 02:06:18;;;;;;;16.17;9.87;;;;;;;;;;5036252;28;88345;-57
2023/07/23 02:08:46;;;;;;;17.53;10.13;;;;;;;;;;5036834;27;88009;-57
2023/07/23 02:11:14;;;;;;;14.83;10.00;;;;;;;;;;5041927;27;87945;-57
2023/07/23 02:13:44;;;;;;;14.77;9.63;;;;;;;;;;5056765;27;87389;-57
2023/07/23 02:16:18;;;;;;;16.57;10.43;;;;;;;;;;5060539;27;89635;-57
2023/07/23 02:18:46;;;;;;;16.27;10.03;;;;;;;;;;5059474;27;88066;-57
2023/07/23 02:21:15;;;;;;;19.53;12.27;;;;;;;;;;5062333;27;88981;-57
2023/07/23 02:23:44;;;;;;;20.03;11.17;;;;;;;;;;5062768;27;87866;-57
2023/07/23 02:26:13;;;;;;;18.30;10.40;;;;;;;;;;5063046;27;88643;-57
2023/07/23 02:28:43;;;;;;;17.77;9.87;;;;;;;;;;5062813;27;88148;-58
2023/07/23 02:31:12;;;;;;;16.57;9.73;;;;;;;;;;5063661;27;88075;-57
2023/07/23 02:33:42;;;;;;;18.87;9.83;;;;;;;;;;5063547;27;87639;-57
2023/07/23 02:36:10;;;;;;;20.73;10.77;;;;;;;;;;5063437;27;88518;-57
2023/07/23 02:38:38;;;;;;;17.33;11.20;;;;;;;;;;5062564;27;88037;-58
2023/07/23 02:41:07;;;;;;;15.97;9.63;;;;;;;;;;5063163;27;88777;-58
2023/07/23 02:43:36;;;;;;;16.40;10.50;;;;;;;;;;5063017;27;87678;-57
2023/07/23 02:46:04;;;;;;;20.27;9.60;;;;;;;;;;5062650;27;87524;-57
2023/07/23 02:48:33;;;;;;;20.53;9.77;;;;;;;;;;5062632;27;87940;-57
2023/07/23 02:51:02;;;;;;;20.97;11.20;;;;;;;;;;5063123;27;89750;-57
2023/07/23 02:53:31;;;;;;;15.20;10.30;;;;;;;;;;5062921;27;87610;-57
2023/07/23 02:55:59;;;;;;;12.83;9.30;;;;;;;;;;5062732;27;88541;-58
2023/07/23 02:58:27;;;;;;;14.87;9.40;;;;;;;;;;5063185;27;87932;-58
2023/07/23 03:00:56;;;;;;;18.13;9.93;;;;;;;;;;5062964;27;87770;-57
2023/07/23 03:03:25;;;;;;;18.87;10.27;;;;;;;;;;5062795;27;87669;-57
2023/07/23 03:05:53;;;;;;;15.70;9.83;;;;;;;;;;5062666;27;89677;-57
2023/07/23 03:08:23;;;;;;;14.97;8.93;;;;;;;;;;5063071;27;88027;-57
2023/07/23 03:10:52;;;;;;;16.33;9.50;;;;;;;;;;5063156;27;88806;-57
2023/07/23 03:13:21;;;;;;;15.47;9.70;;;;;;;;;;5063052;27;87864;-57
2023/07/23 03:15:49;;;;;;;16.10;8.07;;;;;;;;;;5062678;27;88522;-58
2023/07/23 03:18:17;;;;;;;14.03;8.83;;;;;;;;;;5062903;27;87467;-57
2023/07/23 03:20:46;;;;;;;11.17;7.83;;;;;;;;;;5062911;27;88844;-57
2023/07/23 03:23:15;;;;;;;13.60;7.97;;;;;;;;;;5063069;27;87392;-57
2023/07/23 03:25:44;;;;;;;10.97;7.67;;;;;;;;;;5062666;27;89599;-57
2023/07/23 03:28:13;;;;;;;12.10;7.37;;;;;;;;;;5058807;27;87976;-57
2023/07/23 03:30:41;;;;;;;11.00;7.57;;;;;;;;;;5058960;27;88873;-57
2023/07/23 03:33:09;;;;;;;11.97;6.43;;;;;;;;;;5060196;27;88256;-57
2023/07/23 03:35:38;;;;;;;10.23;5.97;;;;;;;;;;5059593;27;88453;-57
2023/07/23 03:38:06;;;;;;;10.40;6.80;;;;;;;;;;5059036;27;88986;-57
2023/07/23 03:40:35;;;;;;;9.77;5.83;;;;;;;;;;5059230;27;91117;-57
2023/07/23 03:43:04;;;;;;;9.13;5.57;;;;;;;;;;5059597;27;88265;-57
2023/07/23 03:45:33;;;;;;;10.47;6.63;;;;;;;;;;5059297;27;89041;-58
2023/07/23 03:48:01;;;;;;;10.27;6.97;;;;;;;;;;5059374;27;88046;-57
2023/07/23 03:50:29;;;;;;;11.13;7.10;;;;;;;;;;5059179;27;87814;-57
2023/07/23 03:52:58;;;;;;;9.77;6.57;;;;;;;;;;5059232;27;87643;-57
2023/07/23 03:55:26;;;;;;;8.63;6.30;;;;;;;;;;5059253;27;87617;-57
2023/07/23 03:57:55;;;;;;;13.80;8.17;;;;;;;;;;5059342;27;88081;-57
2023/07/23 04:00:24;;;;;;;9.63;6.17;;;;;;;;;;5059083;27;87763;-57
2023/07/23 04:02:53;;;;;;;10.30;7.00;;;;;;;;;;5058497;27;87950;-57
2023/07/23 04:05:21;;;;;;;9.97;6.53;;;;;;;;;;5059297;27;88711;-57
2023/07/23 04:07:50;;;;;;;8.17;5.43;;;;;;;;;;5059259;27;89046;-57
2023/07/23 04:10:18;;;;;;;14.87;6.47;;;;;;;;;;5059111;27;87727;-57
2023/07/23 04:12:47;;;;;;;9.17;6.23;;;;;;;;;;5059101;27;87817;-57
2023/07/23 04:15:15;;;;;;;9.27;6.20;;;;;;;;;;5058467;27;88584;-57
2023/07/23 04:17:45;;;;;;;10.37;6.37;;;;;;;;;;5058802;27;88074;-57
2023/07/23 04:20:13;;;;;;;11.70;6.63;;;;;;;;;;5058969;27;88848;-57
2023/07/23 04:22:42;;;;;;;9.00;6.57;;;;;;;;;;5059075;27;87766;-57
2023/07/23 04:25:10;;;;;;;12.50;6.97;;;;;;;;;;5058945;27;89554;-57
2023/07/23 04:27:38;;;;;;;8.70;5.83;;;;;;;;;;5058465;27;90187;-57
2023/07/23 04:30:07;;;;;;;10.13;6.37;;;;;;;;;;5058988;27;87493;-57
2023/07/23 04:32:36;;;;;;;9.73;6.13;;;;;;;;;;5059639;27;87653;-57
2023/07/23 04:35:06;;;;;;;7.20;5.47;;;;;;;;;;5058592;27;87545;-57
2023/07/23 04:37:35;;;;;;;8.37;5.50;;;;;;;;;;5058646;27;87539;-58
2023/07/23 04:40:03;;;;;;;8.43;5.83;;;;;;;;;;5058197;27;88701;-57
2023/07/23 04:42:32;;;;;;;8.23;5.80;;;;;;;;;;5057411;27;88094;-57
2023/07/23 04:45:00;;;;;;;9.20;6.27;;;;;;;;;;5058811;27;88525;-57
2023/07/23 04:47:28;;;;;;;7.87;5.57;;;;;;;;;;5058277;27;87812;-58
2023/07/23 04:49:57;;;;;;;8.10;5.70;;;;;;;;;;5058394;27;89202;-57
2023/07/23 04:52:27;;;;;;;10.23;5.77;;;;;;;;;;5058090;27;87927;-57
2023/07/23 04:54:55;;;;;;;7.37;5.93;;;;;;;;;;5058439;27;88521;-57
2023/07/23 04:57:24;;;;;;;5.47;4.40;;;;;;;;;;5058377;27;88076;-57
2023/07/23 04:59:52;;;;;;;8.50;5.07;;;;;;;;;;5058477;27;88065;-58
2023/07/23 05:02:22;;;;;;;10.17;5.50;;;;;;;;;;5058414;27;88278;-58
2023/07/23 05:04:50;;;;;;;7.40;4.77;;;;;;;;;;5057991;27;89579;-58
2023/07/23 05:07:18;;;;;;;7.63;4.43;;;;;;;;;;5058123;27;88023;-58
2023/07/23 05:09:48;;;;;;;5.00;3.50;;;;;;;;;;5058523;27;88790;-57
2023/07/23 05:12:16;;;;;;;5.10;3.37;;;;;;;;;;5058446;27;88015;-57
2023/07/23 05:14:48;;;;;;;6.43;3.73;;;;;;;;;;5057820;27;89144;-58
2023/07/23 05:17:16;;;;;;;4.70;3.57;;;;;;;;;;5057858;27;88969;-57
2023/07/23 05:19:45;;;;;;;5.63;3.73;;;;;;;;;;5058374;27;88437;-57
2023/07/23 05:22:13;;;;;;;5.77;3.70;;;;;;;;;;5058488;27;87611;-58
2023/07/23 05:24:41;;;;;;;4.93;3.90;;;;;;;;;;5058066;27;89596;-57
2023/07/23 05:27:11;;;;;;;8.37;3.70;;;;;;;;;;5057138;27;89091;-57
2023/07/23 05:29:40;;;;;;;4.67;2.73;;;;;;;;;;5057921;27;88946;-57
2023/07/23 05:32:09;;;;;;;4.83;3.20;;;;;;;;;;5058038;27;87617;-57
2023/07/23 05:34:37;;;;;;;5.17;3.47;;;;;;;;;;5058184;27;92608;-57
2023/07/23 05:37:06;;;;;;;6.37;3.70;;;;;;;;;;5057862;27;87965;-57
2023/07/23 05:39:34;;;;;;;2.90;2.40;;;;;;;;;;5057138;27;88931;-57
2023/07/23 05:42:03;;;;;;;4.90;3.30;;;;;;;;;;5056696;27;88004;-57
2023/07/23 05:44:33;;;;;;;4.90;3.27;;;;;;;;;;5057814;27;89575;-57
2023/07/23 05:47:01;;;;;;;4.87;3.07;;;;;;;;;;5057804;27;88971;-57
2023/07/23 05:49:29;;;;;;;5.13;3.07;;;;;;;;;;5057677;27;87539;-57
2023/07/23 05:51:58;;;;;;;6.03;3.37;;;;;;;;;;5057742;27;87492;-57
2023/07/23 05:54:26;;;;;;;5.00;2.50;;;;;;;;;;5058947;27;90000;-57
2023/07/23 05:56:55;;;;;;;3.53;2.57;;;;;;;;;;5061031;27;88026;-58
2023/07/23 05:59:23;;;;;;;4.07;3.10;;;;;;;;;;5061435;27;87732;-57
2023/07/23 06:01:53;;;;;;;8.53;2.57;;;;;;;;;;5060964;27;87647;-57
2023/07/23 06:04:21;;;;;;;3.80;2.53;;;;;;;;;;5060872;27;89621;-58
2023/07/23 06:06:50;;;;;;;3.47;2.60;;;;;;;;;;5060238;27;89866;-57
2023/07/23 06:09:19;;;;;;;3.23;2.63;;;;;;;;;;5061145;27;89835;-58
2023/07/23 06:11:47;;;;;;;5.67;3.53;;;;;;;;;;5061225;27;87680;-57
2023/07/23 06:14:15;;;;;;;3.87;2.90;;;;;;;;;;5061102;27;90447;-57
2023/07/23 06:16:44;;;;;;;5.00;3.00;;;;;;;;;;5060822;27;88134;-57
2023/07/23 06:19:14;;;;;;;3.03;2.50;;;;;;;;;;5060820;27;87659;-57
2023/07/23 06:21:42;;;;;;;4.60;3.30;;;;;;;;;;5061024;27;87601;-57
2023/07/23 06:24:10;;;;;;;5.97;3.23;;;;;;;;;;5060630;27;89640;-57
2023/07/23 06:26:39;;;;;;;4.83;3.50;;;;;;;;;;5060925;27;88227;-57
2023/07/23 06:29:08;;;;;;;4.07;2.90;;;;;;;;;;5060593;27;88798;-58
2023/07/23 06:31:37;;;;;;;4.53;3.27;;;;;;;;;;5060314;27;87961;-58
2023/07/23 06:34:06;;;;;;;4.27;2.90;;;;;;;;;;5060367;27;88729;-58
2023/07/23 06:36:35;;;;;;;4.00;2.93;;;;;;;;;;5060435;27;89154;-59
2023/07/23 06:39:04;;;;;;;5.27;3.27;;;;;;;;;;5060418;27;88756;-58
2023/07/23 06:41:32;;;;;;;4.03;2.93;;;;;;;;;;5060605;27;87452;-57
2023/07/23 06:44:01;;;;;;;4.20;2.47;;;;;;;;;;5060097;27;88171;-57
2023/07/23 06:46:29;;;;;;;3.93;2.83;;;;;;;;;;5060435;27;87475;-58
2023/07/23 06:48:57;;;;;;;4.40;2.90;;;;;;;;;;5060523;27;87959;-58
2023/07/23 06:51:26;;;;;;;4.73;2.63;;;;;;;;;;5060370;27;87356;-57
2023/07/23 06:53:56;;;;;;;5.70;3.00;;;;;;;;;;5060113;27;89575;-58
2023/07/23 06:56:25;;;;;;;4.77;2.43;;;;;;;;;;5060078;27;89327;-58
2023/07/23 06:58:53;;;;;;;3.63;2.53;;;;;;;;;;5060258;27;88423;-58
2023/07/23 07:01:22;;;;;;;3.43;2.97;;;;;;;;;;5060488;27;87673;-58
2023/07/23 07:03:50;;;;;;;4.53;2.60;;;;;;;;;;5060110;27;89615;-57
2023/07/23 07:06:19;;;;;;;3.73;2.50;;;;;;;;;;5060275;27;87704;-58
2023/07/23 07:08:47;;;;;;;3.73;2.80;;;;;;;;;;5060531;27;87713;-57
2023/07/23 07:11:17;;;;;;;4.73;3.23;;;;;;;;;;5060749;27;87649;-58
2023/07/23 07:13:45;;;;;;;4.77;2.53;;;;;;;;;;5060235;27;89662;-58
2023/07/23 07:16:14;;;;;;;3.63;2.70;;;;;;;;;;5059863;27;88124;-58
2023/07/23 07:18:42;;;;;;;5.43;3.37;;;;;;;;;;5059990;27;87987;-58
2023/07/23 07:21:10;;;;;;;2.97;1.70;;;;;;;;;;5059657;27;87940;-58
2023/07/23 07:23:39;;;;;;;6.13;2.57;;;;;;;;;;5059600;27;88616;-58
2023/07/23 07:26:07;;;;;;;2.43;2.23;;;;;;;;;;5060095;27;89261;-58
2023/07/23 07:28:37;;;;;;;4.03;2.20;;;;;;;;;;5059517;27;87657;-58
2023/07/23 07:31:05;;;;;;;3.73;2.93;;;;;;;;;;5060245;27;88296;-58
2023/07/23 07:33:34;;;;;;;2.93;2.57;;;;;;;;;;5059613;27;89642;-58
2023/07/23 07:36:02;;;;;;;3.30;2.63;;;;;;;;;;5059723;27;88051;-58
2023/07/23 07:38:31;;;;;;;5.17;2.07;;;;;;;;;;5059398;27;88952;-58
2023/07/23 07:41:01;;;;;;;2.83;2.00;;;;;;;;;;5059720;27;87658;-58
2023/07/23 07:43:29;;;;;;;2.87;2.10;;;;;;;;;;5059052;27;88551;-58
2023/07/23 07:46:00;;;;;;;4.07;2.40;;;;;;;;;;5058930;27;90051;-58
2023/07/23 07:48:29;;;;;;;3.37;2.37;;;;;;;;;;5059378;27;89924;-57
2023/07/23 07:50:59;;;;;;;2.73;2.10;;;;;;;;;;5059378;27;87754;-57
2023/07/23 07:53:27;;;;;;;3.53;2.03;;;;;;;;;;5059341;27;88553;-58
2023/07/23 07:55:56;;;;;;;2.57;2.20;;;;;;;;;;5059755;27;88088;-58
2023/07/23 07:58:25;;;;;;;5.77;2.33;;;;;;;;;;5059333;27;87763;-58
2023/07/23 08:00:55;;;;;;;3.53;2.17;;;;;;;;;;5059439;27;87800;-57
2023/07/23 08:03:26;;;;;;;2.60;2.20;;;;;;;;;;5058575;27;90097;-58
2023/07/23 08:05:56;;;;;;;3.90;2.20;;;;;;;;;;5058954;27;87968;-57
2023/07/23 08:08:25;;;;;;;3.87;2.13;;;;;;;;;;5058951;27;88243;-57
2023/07/23 08:10:54;;;;;;;4.30;2.87;;;;;;;;;;5058587;27;87886;-58
2023/07/23 08:13:22;;;;;;;3.07;2.27;;;;;;;;;;5058950;27;89609;-58
2023/07/23 08:15:51;;;;;;;5.33;1.90;;;;;;;;;;5058621;27;88045;-57
2023/07/23 08:18:22;;;;;;;3.00;2.23;;;;;;;;;;5057887;27;87398;-57
2023/07/23 08:20:54;;;;;;;2.33;1.80;;;;;;;;;;5059326;27;88304;-58
2023/07/23 08:23:24;;;;;;;2.87;2.20;;;;;;;;;;5058850;27;88502;-58
2023/07/23 08:25:53;;;;;;;2.63;1.93;;;;;;;;;;5058930;27;89040;-58
2023/07/23 08:28:22;;;;;;;4.03;2.40;;;;;;;;;;5058600;27;88904;-57
2023/07/23 08:30:51;;;;;;;3.37;1.90;;;;;;;;;;5059062;27;87681;-57
2023/07/23 08:33:19;;;;;;;3.50;2.13;;;;;;;;;;5058788;27;89687;-57
2023/07/23 08:35:48;;;;;;;2.67;2.17;;;;;;;;;;5058005;27;90040;-57
2023/07/23 08:38:19;;;;;;;1.93;1.80;;;;;;;;;;5058773;27;88920;-57
2023/07/23 08:40:47;;;;;;;3.20;2.20;;;;;;;;;;5058910;27;88176;-57
2023/07/23 08:43:36;;;;;;;3.37;1.93;;;;;;;;;;5058469;27;91808;-57
2023/07/23 08:46:24;;;;;;;2.43;2.13;;;;;;;;;;5058689;27;88022;-58
2023/07/23 08:49:11;;;;;;;4.90;1.90;;;;;;;;;;5058579;27;88005;-57
2023/07/23 08:51:41;;;;;;;2.40;2.00;;;;;;;;;;5058537;27;87603;-57
2023/07/23 08:54:11;;;;;;;2.07;1.63;;;;;;;;;;5058764;27;90142;-57
2023/07/23 08:56:40;;;;;;;3.07;2.57;;;;;;;;;;5058500;27;87507;-57
2023/07/23 08:59:12;;;;;;;2.40;1.80;;;;;;;;;;5058477;27;88765;-57
2023/07/23 09:01:40;;;;;;;2.07;1.70;;;;;;;;;;5058485;27;88015;-57
2023/07/23 09:04:10;;;;;;;3.27;2.17;;;;;;;;;;5057388;27;88856;-57
2023/07/23 09:06:38;;;;;;;1.87;1.50;;;;;;;;;;5058446;27;88196;-57
2023/07/23 09:09:07;;;;;;;2.43;1.80;;;;;;;;;;5058506;27;88844;-57
2023/07/23 09:11:37;;;;;;;2.57;2.00;;;;;;;;;;5058641;27;87610;-57
2023/07/23 09:14:08;;;;;;;1.90;1.53;;;;;;;;;;5058113;27;88196;-57
2023/07/23 09:16:39;;;;;;;1.93;1.60;;;;;;;;;;5058018;27;88007;-57
2023/07/23 09:19:07;;;;;;;1.80;1.57;;;;;;;;;;5058345;27;87769;-57
2023/07/23 09:21:35;;;;;;;4.73;2.07;;;;;;;;;;5058185;27;87597;-58
2023/07/23 09:24:06;;;;;;;2.77;1.67;;;;;;;;;;5057991;27;89675;-57
2023/07/23 09:26:35;;;;;;;1.70;1.60;;;;;;;;;;5057569;27;90122;-57
2023/07/23 09:29:08;;;;;;;2.83;1.43;;;;;;;;;;5058641;27;90017;-57
2023/07/23 09:31:37;;;;;;;2.13;1.70;;;;;;;;;;5062207;27;87546;-58
2023/07/23 09:34:05;;;;;;;2.50;1.57;;;;;;;;;;5061214;27;89453;-58
2023/07/23 09:36:34;;;;;;;3.57;1.90;;;;;;;;;;5061696;27;87599;-58
2023/07/23 09:39:02;;;;;;;2.17;1.40;;;;;;;;;;5061389;27;88759;-57
2023/07/23 09:41:32;;;;;;;3.37;2.00;;;;;;;;;;5061822;27;87682;-57
2023/07/23 09:44:06;;;;;;;3.97;1.83;;;;;;;;;;5061212;27;87496;-57
2023/07/23 09:46:35;;;;;;;1.77;1.60;;;;;;;;;;5061373;27;88167;-57
2023/07/23 09:49:03;;;;;;;1.77;1.33;;;;;;;;;;5061495;27;87756;-58
2023/07/23 09:51:33;;;;;;;1.60;1.30;;;;;;;;;;5060921;27;88386;-57
2023/07/23 09:54:01;;;;;;;1.80;1.43;;;;;;;;;;5058698;27;89697;-58
2023/07/23 09:56:29;;;;;;;1.50;1.20;;;;;;;;;;5060728;27;87444;-58
2023/07/23 09:58:58;;;;;;;2.17;1.43;;;;;;;;;;5058059;27;87764;-57
2023/07/23 10:01:29;;;;;;;3.80;1.87;;;;;;;;;;5061008;27;87696;-58
2023/07/23 10:03:58;;;;;;;1.87;1.53;;;;;;;;;;5060257;27;88747;-58
2023/07/23 10:06:26;;;;;;;1.70;1.43;;;;;;;;;;5060319;27;89200;-58
2023/07/23 10:08:55;;;;;;;5.37;1.43;;;;;;;;;;5060846;27;88814;-57
2023/07/23 10:11:23;;;;;;;2.63;1.60;;;;;;;;;;5060833;27;87584;-58
2023/07/23 10:13:51;;;;;;;2.20;1.63;;;;;;;;;;5060428;27;89777;-57
2023/07/23 10:16:22;;;;;;;2.50;1.30;;;;;;;;;;5059816;27;90051;-58
2023/07/23 10:18:52;;;;;;;2.13;1.60;;;;;;;;;;5060447;27;89743;-58
2023/07/23 10:21:20;;;;;;;2.07;1.50;;;;;;;;;;5060655;27;87493;-58
2023/07/23 10:23:53;;;;;;;2.80;1.40;;;;;;;;;;5060208;27;88455;-58
2023/07/23 10:26:22;;;;;;;2.00;1.63;;;;;;;;;;5058595;27;89430;-57
2023/07/23 10:28:50;;;;;;;3.83;1.60;;;;;;;;;;5060075;27;88033;-58
2023/07/23 10:31:19;;;;;;;1.50;1.37;;;;;;;;;;5059934;27;87709;-57
2023/07/23 10:33:49;;;;;;;2.20;1.37;;;;;;;;;;5060321;27;89786;-58
2023/07/23 10:36:21;;;;;;;1.80;1.23;;;;;;;;;;5057879;27;89051;-58
2023/07/23 10:39:04;;;;;;;1.43;1.20;;;;;;;;;;5059830;27;88819;-58
2023/07/23 10:41:47;;;;;;;2.00;1.57;;;;;;;;;;5058748;27;87916;-58
2023/07/23 10:44:21;;;;;;;1.80;1.40;;;;;;;;;;5057413;27;89717;-57
2023/07/23 10:46:49;;;;;;;2.60;1.70;;;;;;;;;;5060150;27;88544;-58
2023/07/23 10:49:21;;;;;;;1.80;1.30;;;;;;;;;;5060052;27;88719;-57
2023/07/23 10:51:51;;;;;;;1.77;1.20;;;;;;;;;;5059951;27;87571;-57
2023/07/23 10:54:20;;;;;;;3.57;1.47;;;;;;;;;;5059374;27;88404;-58
2023/07/23 10:56:50;;;;;;;1.30;1.00;;;;;;;;;;5059716;27;89055;-57
2023/07/23 10:59:20;;;;;;;1.53;1.20;;;;;;;;;;5057592;27;89803;-57
2023/07/23 11:01:50;;;;;;;2.13;1.27;;;;;;;;;;5059899;27;87657;-58
2023/07/23 11:04:19;;;;;;;3.00;1.47;;;;;;;;;;5057342;27;89711;-57
2023/07/23 11:06:56;;;;;;;2.50;1.40;;;;;;;;;;5058878;27;88977;-57
2023/07/23 11:09:26;;;;;;;1.93;1.33;;;;;;;;;;5058442;27;89904;-58
2023/07/23 11:11:54;;;;;;;2.13;1.33;;;;;;;;;;5057294;27;87671;-58
2023/07/23 11:14:23;;;;;;;1.83;1.40;;;;;;;;;;5059507;27;89812;-57
2023/07/23 11:16:52;;;;;;;1.73;1.33;;;;;;;;;;5059120;27;89228;-57
2023/07/23 11:19:21;;;;;;;2.47;1.60;;;;;;;;;;5059231;27;88103;-57
2023/07/23 11:21:50;;;;;;;1.20;1.10;;;;;;;;;;5059676;27;87681;-57
2023/07/23 11:24:20;;;;;;;1.60;1.20;;;;;;;;;;5057258;27;89576;-57
2023/07/23 11:26:49;;;;;;;1.27;1.13;;;;;;;;;;5059145;27;89081;-57
2023/07/23 11:29:17;;;;;;;1.20;0.93;;;;;;;;;;5056712;27;88286;-57
2023/07/23 11:31:46;;;;;;;2.00;1.30;;;;;;;;;;5058557;27;88603;-58
2023/07/23 11:34:14;;;;;;;0.80;0.80;;;;;;;;;;5059384;27;88688;-57
2023/07/23 11:36:43;;;;;;;3.13;1.63;;;;;;;;;;5059616;27;88088;-58
2023/07/23 11:39:11;;;;;;;2.43;1.23;;;;;;;;;;5059406;27;88717;-57
2023/07/23 11:41:41;;;;;;;1.33;1.10;;;;;;;;;;5059915;27;87391;-57
2023/07/23 11:44:11;;;;;;;1.87;1.17;;;;;;;;;;5059042;27;88889;-58
2023/07/23 11:46:40;;;;;;;1.20;0.90;;;;;;;;;;5059431;27;88405;-58
2023/07/23 11:49:08;;;;;;;1.20;1.10;;;;;;;;;;5059925;27;88854;-57
2023/07/23 11:51:37;;;;;;;1.10;0.93;;;;;;;;;;5059063;27;87655;-57
2023/07/23 11:54:07;;;;;;;0.77;0.67;;;;;;;;;;5059093;27;88606;-57
2023/07/23 11:56:36;;;;;;;1.30;1.20;;;;;;;;;;5058255;27;87861;-58
2023/07/23 11:59:07;;;;;;;4.17;1.07;;;;;;;;;;5058963;27;89746;-57
2023/07/23 12:01:36;;;;;;;1.00;0.97;;;;;;;;;;5059958;27;87352;-57
2023/07/23 12:04:05;;;;;;;0.90;0.80;;;;;;;;;;5057778;27;89661;-57
2023/07/23 12:06:34;;;;;;;0.70;0.70;;;;;;;;;;5059116;27;88068;-57
2023/07/23 12:09:02;;;;;;;1.70;1.20;;;;;;;;;;5058756;27;87816;-57
2023/07/23 12:11:32;;;;;;;1.20;1.10;;;;;;;;;;5058428;27;87651;-57
2023/07/23 12:14:03;;;;;;;1.13;1.00;;;;;;;;;;5058701;27;88551;-57
2023/07/23 12:16:34;;;;;;;1.43;1.00;;;;;;;;;;5058373;27;87478;-57
2023/07/23 12:19:04;;;;;;;1.90;1.37;;;;;;;;;;5058911;27;88822;-57
2023/07/23 12:21:34;;;;;;;1.67;1.30;;;;;;;;;;5058837;27;87974;-57
2023/07/23 12:24:27;;;;;;;1.40;1.00;;;;;;;;;;5058963;27;89289;-57
2023/07/23 12:26:56;;;;;;;2.00;0.97;;;;;;;;;;5043721;27;88046;-58
2023/07/23 12:29:24;;;;;;;2.17;1.27;;;;;;;;;;5058917;27;87391;-58
2023/07/23 12:34:48;;;;;;;0.93;0.80;;;;;;;;;;5074479;27;1341533;-58
2023/07/23 12:37:16;;;;;;;3.03;1.27;;;;;;;;;;5097604;27;88046;-59
2023/07/23 12:39:46;;;;;;;0.80;0.80;;;;;;;;;;5097566;27;88128;-59
2023/07/23 12:42:15;;;;;;;2.07;0.97;;;;;;;;;;5096999;27;88605;-59
2023/07/23 12:44:43;;;;;;;0.80;0.80;;;;;;;;;;5097115;27;88764;-59
2023/07/23 12:47:12;;;;;;;1.20;1.10;;;;;;;;;;5097870;27;87855;-59
2023/07/23 12:49:40;;;;;;;1.13;1.03;;;;;;;;;;5097891;27;87664;-60
2023/07/23 12:52:10;;;;;;;1.93;1.13;;;;;;;;;;5097404;27;89670;-59
2023/07/23 12:54:38;;;;;;;2.00;0.90;;;;;;;;;;5097151;27;87905;-59
2023/07/23 12:57:07;;;;;;;1.20;1.00;;;;;;;;;;5097039;27;87519;-59
2023/07/23 12:59:37;;;;;;;1.67;1.00;;;;;;;;;;5097495;27;87705;-59
2023/07/23 13:02:06;;;;;;;2.93;0.60;;;;;;;;;;5097305;27;89522;-59
2023/07/23 13:04:35;;;;;;;1.00;0.93;;;;;;;;;;5096935;27;88015;-59
2023/07/23 13:07:03;;;;;;;0.50;0.50;;;;;;;;;;5097137;27;87532;-59
2023/07/23 13:09:33;;;;;;;1.67;1.23;;;;;;;;;;5096972;27;87669;-59
2023/07/23 13:12:01;;;;;;;1.20;1.10;;;;;;;;;;5096581;27;88564;-58
2023/07/23 13:14:30;;;;;;;1.80;1.00;;;;;;;;;;5096954;27;87531;-58
2023/07/23 13:16:58;;;;;;;1.80;1.13;;;;;;;;;;5096816;27;87490;-58
2023/07/23 13:19:27;;;;;;;1.80;1.17;;;;;;;;;;5096901;27;87674;-59
2023/07/23 13:21:55;;;;;;;1.53;0.90;;;;;;;;;;5096764;27;89607;-58
2023/07/23 13:24:24;;;;;;;1.47;0.90;;;;;;;;;;5096709;27;88872;-59
2023/07/23 13:26:53;;;;;;;1.40;1.10;;;;;;;;;;5096410;27;88105;-57
2023/07/23 13:29:22;;;;;;;1.90;1.23;;;;;;;;;;5096813;27;87683;-59
2023/07/23 13:31:50;;;;;;;1.87;1.20;;;;;;;;;;5096571;27;89602;-59
2023/07/23 13:34:19;;;;;;;4.87;1.60;;;;;;;;;;5096227;27;87584;-59
2023/07/23 13:36:47;;;;;;;3.20;1.90;;;;;;;;;;5095703;27;88012;-59
2023/07/23 13:39:16;;;;;;;7.47;2.07;;;;;;;;;;5096258;27;87688;-59
2023/07/23 13:41:44;;;;;;;3.13;1.93;;;;;;;;;;5096725;27;88723;-59
2023/07/23 13:44:14;;;;;;;8.63;2.60;;;;;;;;;;5093283;27;88927;-58
2023/07/23 13:46:42;;;;;;;8.20;2.53;;;;;;;;;;5083125;27;87484;-59
2023/07/23 13:49:11;;;;;;;8.53;3.70;;;;;;;;;;5082118;27;87784;-59
2023/07/23 13:51:39;;;;;;;5.03;2.73;;;;;;;;;;5081837;27;89550;-59
2023/07/23 13:54:08;;;;;;;4.10;2.47;;;;;;;;;;5081795;27;90154;-59
2023/07/23 13:56:36;;;;;;;4.43;1.97;;;;;;;;;;5079668;27;87547;-58
2023/07/23 13:59:05;;;;;;;4.67;2.07;;;;;;;;;;5082244;27;87618;-57
2023/07/23 14:01:35;;;;;;;4.50;2.30;;;;;;;;;;5081982;27;88360;-57
2023/07/23 14:04:03;;;;;;;7.33;3.00;;;;;;;;;;5081720;27;87664;-59
2023/07/23 14:06:32;;;;;;;9.70;3.33;;;;;;;;;;5082251;27;87451;-57
2023/07/23 14:09:00;;;;;;;6.03;3.23;;;;;;;;;;5081961;27;87671;-59
2023/07/23 14:11:29;;;;;;;7.93;2.57;;;;;;;;;;5070651;27;88605;-59
2023/07/23 14:14:00;;;;;;;5.87;2.60;;;;;;;;;;5079969;27;88135;-59
2023/07/23 14:16:29;;;;;;;4.60;2.40;;;;;;;;;;5081688;27;87745;-59
2023/07/23 14:19:00;;;;;;;3.70;2.73;;;;;;;;;;5082129;27;88250;-58
2023/07/23 14:21:28;;;;;;;4.27;2.50;;;;;;;;;;5081817;27;87546;-58
2023/07/23 14:23:57;;;;;;;4.20;2.83;;;;;;;;;;5079014;27;88278;-58
2023/07/23 14:26:25;;;;;;;5.20;3.10;;;;;;;;;;5081983;27;87495;-58
2023/07/23 14:28:54;;;;;;;3.97;2.47;;;;;;;;;;5082263;27;87960;-59
2023/07/23 14:31:22;;;;;;;4.33;2.90;;;;;;;;;;5082236;27;88552;-57
2023/07/23 14:33:51;;;;;;;6.43;2.73;;;;;;;;;;5081938;27;89770;-57
2023/07/23 14:36:21;;;;;;;4.80;2.70;;;;;;;;;;5082271;27;87537;-59
2023/07/23 14:38:49;;;;;;;6.63;2.70;;;;;;;;;;5082225;27;88129;-59
2023/07/23 14:41:17;;;;;;;8.23;2.93;;;;;;;;;;5081437;27;89663;-57
2023/07/23 14:43:46;;;;;;;3.63;2.80;;;;;;;;;;5081496;27;87585;-59
2023/07/23 14:46:14;;;;;;;4.43;1.83;;;;;;;;;;5081918;27;87891;-57
2023/07/23 14:48:43;;;;;;;3.40;2.53;;;;;;;;;;5081523;27;87879;-58
2023/07/23 14:51:11;;;;;;;3.83;2.33;;;;;;;;;;5081486;27;89633;-59
2023/07/23 14:53:41;;;;;;;3.93;2.30;;;;;;;;;;5081270;27;89092;-59